sensor_id;sensor_type;location;lat;lon;timestamp;P1;durP1;ratioP1;P2;durP2;ratioP2
52708;SDS011;38606;52.986;6.980;2024-02-16T00:00:06;5.88;;;3.80;;
52708;SDS011;38606;52.986;6.980;2024-02-16T00:02:32;11.43;;;4.03;;
52708;SDS011;38606;52.986;6.980;2024-02-16T00:04:58;10.93;;;3.88;;
52708;SDS011;38606;52.986;6.980;2024-02-16T00:07:24;11.57;;;3.80;;
52708;SDS011;38606;52.986;6.980;2024-02-16T00:09:50;9.57;;;4.05;;
52708;SDS011;38606;52.986;6.980;2024-02-16T00:12:16;13.73;;;4.18;;
52708;SDS011;38606;52.986;6.980;2024-02-16T00:14:42;7.38;;;3.42;;
52708;SDS011;38606;52.986;6.980;2024-02-16T00:17:08;9.55;;;4.00;;
52708;SDS011;38606;52.986;6.980;2024-02-16T00:19:36;9.20;;;4.32;;
52708;SDS011;38606;52.986;6.980;2024-02-16T00:22:02;9.45;;;3.78;;
52708;SDS011;38606;52.986;6.980;2024-02-16T00:24:28;10.10;;;3.83;;
52708;SDS011;38606;52.986;6.980;2024-02-16T00:26:56;11.00;;;3.78;;
52708;SDS011;38606;52.986;6.980;2024-02-16T00:29:22;6.50;;;3.55;;
52708;SDS011;38606;52.986;6.980;2024-02-16T00:31:48;9.57;;;3.55;;
52708;SDS011;38606;52.986;6.980;2024-02-16T00:34:14;6.53;;;3.33;;
52708;SDS011;38606;52.986;6.980;2024-02-16T00:36:39;10.98;;;3.50;;
52708;SDS011;38606;52.986;6.980;2024-02-16T00:39:05;10.98;;;3.65;;
52708;SDS011;38606;52.986;6.980;2024-02-16T00:41:31;6.25;;;3.47;;
52708;SDS011;38606;52.986;6.980;2024-02-16T00:43:56;5.47;;;3.22;;
52708;SDS011;38606;52.986;6.980;2024-02-16T00:46:22;7.70;;;3.47;;
52708;SDS011;38606;52.986;6.980;2024-02-16T00:48:49;12.77;;;3.70;;
52708;SDS011;38606;52.986;6.980;2024-02-16T00:51:16;5.55;;;3.25;;
52708;SDS011;38606;52.986;6.980;2024-02-16T00:53:42;6.93;;;3.80;;
52708;SDS011;38606;52.986;6.980;2024-02-16T00:56:07;5.40;;;3.28;;
52708;SDS011;38606;52.986;6.980;2024-02-16T00:58:34;7.05;;;3.63;;
52708;SDS011;38606;52.986;6.980;2024-02-16T01:01:01;9.15;;;3.50;;
52708;SDS011;38606;52.986;6.980;2024-02-16T01:03:29;8.82;;;3.63;;
52708;SDS011;38606;52.986;6.980;2024-02-16T01:05:54;7.72;;;3.40;;
52708;SDS011;38606;52.986;6.980;2024-02-16T01:08:20;6.68;;;3.75;;
52708;SDS011;38606;52.986;6.980;2024-02-16T01:10:46;6.93;;;3.33;;
52708;SDS011;38606;52.986;6.980;2024-02-16T01:13:12;6.88;;;3.40;;
52708;SDS011;38606;52.986;6.980;2024-02-16T01:15:37;9.23;;;3.53;;
52708;SDS011;38606;52.986;6.980;2024-02-16T01:18:04;9.32;;;3.40;;
52708;SDS011;38606;52.986;6.980;2024-02-16T01:20:30;8.68;;;3.50;;
52708;SDS011;38606;52.986;6.980;2024-02-16T01:22:57;7.55;;;3.13;;
52708;SDS011;38606;52.986;6.980;2024-02-16T01:25:22;7.80;;;3.40;;
52708;SDS011;38606;52.986;6.980;2024-02-16T01:27:48;7.75;;;2.97;;
52708;SDS011;38606;52.986;6.980;2024-02-16T01:30:14;6.65;;;3.33;;
52708;SDS011;38606;52.986;6.980;2024-02-16T01:32:40;7.43;;;3.35;;
52708;SDS011;38606;52.986;6.980;2024-02-16T01:35:06;6.65;;;3.33;;
52708;SDS011;38606;52.986;6.980;2024-02-16T01:37:32;8.70;;;3.08;;
52708;SDS011;38606;52.986;6.980;2024-02-16T01:39:58;8.10;;;3.50;;
52708;SDS011;38606;52.986;6.980;2024-02-16T01:42:24;9.25;;;4.03;;
52708;SDS011;38606;52.986;6.980;2024-02-16T01:44:50;8.45;;;3.65;;
52708;SDS011;38606;52.986;6.980;2024-02-16T01:47:16;8.07;;;3.33;;
52708;SDS011;38606;52.986;6.980;2024-02-16T01:49:44;7.00;;;3.15;;
52708;SDS011;38606;52.986;6.980;2024-02-16T01:52:10;6.95;;;3.58;;
52708;SDS011;38606;52.986;6.980;2024-02-16T01:54:37;12.02;;;4.63;;
52708;SDS011;38606;52.986;6.980;2024-02-16T01:57:04;6.03;;;3.80;;
52708;SDS011;38606;52.986;6.980;2024-02-16T01:59:31;7.25;;;3.22;;
52708;SDS011;38606;52.986;6.980;2024-02-16T02:01:59;7.32;;;3.40;;
52708;SDS011;38606;52.986;6.980;2024-02-16T02:04:25;8.38;;;3.50;;
52708;SDS011;38606;52.986;6.980;2024-02-16T02:06:52;5.25;;;3.30;;
52708;SDS011;38606;52.986;6.980;2024-02-16T02:09:19;7.80;;;3.55;;
52708;SDS011;38606;52.986;6.980;2024-02-16T02:11:44;7.13;;;3.60;;
52708;SDS011;38606;52.986;6.980;2024-02-16T02:14:10;7.40;;;3.40;;
52708;SDS011;38606;52.986;6.980;2024-02-16T02:16:36;8.05;;;3.60;;
52708;SDS011;38606;52.986;6.980;2024-02-16T02:19:02;7.53;;;3.67;;
52708;SDS011;38606;52.986;6.980;2024-02-16T02:21:28;11.73;;;4.03;;
52708;SDS011;38606;52.986;6.980;2024-02-16T02:23:54;5.97;;;3.30;;
52708;SDS011;38606;52.986;6.980;2024-02-16T02:26:20;9.52;;;3.53;;
52708;SDS011;38606;52.986;6.980;2024-02-16T02:28:46;8.95;;;3.55;;
52708;SDS011;38606;52.986;6.980;2024-02-16T02:31:12;6.78;;;3.13;;
52708;SDS011;38606;52.986;6.980;2024-02-16T02:33:38;6.53;;;3.58;;
52708;SDS011;38606;52.986;6.980;2024-02-16T02:36:04;9.73;;;3.28;;
52708;SDS011;38606;52.986;6.980;2024-02-16T02:38:30;10.75;;;3.88;;
52708;SDS011;38606;52.986;6.980;2024-02-16T02:40:55;6.95;;;3.80;;
52708;SDS011;38606;52.986;6.980;2024-02-16T02:43:22;8.35;;;3.25;;
52708;SDS011;38606;52.986;6.980;2024-02-16T02:45:48;9.38;;;3.50;;
52708;SDS011;38606;52.986;6.980;2024-02-16T02:48:14;8.40;;;3.53;;
52708;SDS011;38606;52.986;6.980;2024-02-16T02:50:39;7.90;;;3.60;;
52708;SDS011;38606;52.986;6.980;2024-02-16T02:53:05;7.95;;;3.35;;
52708;SDS011;38606;52.986;6.980;2024-02-16T02:55:31;7.03;;;3.38;;
52708;SDS011;38606;52.986;6.980;2024-02-16T02:57:56;7.07;;;3.50;;
52708;SDS011;38606;52.986;6.980;2024-02-16T03:00:23;7.72;;;3.50;;
52708;SDS011;38606;52.986;6.980;2024-02-16T03:02:49;8.60;;;4.10;;
52708;SDS011;38606;52.986;6.980;2024-02-16T03:05:14;8.00;;;3.50;;
52708;SDS011;38606;52.986;6.980;2024-02-16T03:07:40;6.88;;;3.80;;
52708;SDS011;38606;52.986;6.980;2024-02-16T03:10:06;6.43;;;3.58;;
52708;SDS011;38606;52.986;6.980;2024-02-16T03:12:34;5.53;;;3.80;;
52708;SDS011;38606;52.986;6.980;2024-02-16T03:15:00;7.50;;;3.60;;
52708;SDS011;38606;52.986;6.980;2024-02-16T03:17:26;6.50;;;3.35;;
52708;SDS011;38606;52.986;6.980;2024-02-16T03:19:51;8.65;;;3.55;;
52708;SDS011;38606;52.986;6.980;2024-02-16T03:22:17;9.25;;;3.65;;
52708;SDS011;38606;52.986;6.980;2024-02-16T03:24:43;7.75;;;3.60;;
52708;SDS011;38606;52.986;6.980;2024-02-16T03:27:10;8.27;;;3.20;;
52708;SDS011;38606;52.986;6.980;2024-02-16T03:29:36;6.80;;;3.58;;
52708;SDS011;38606;52.986;6.980;2024-02-16T03:32:01;7.22;;;3.80;;
52708;SDS011;38606;52.986;6.980;2024-02-16T03:34:27;7.13;;;3.15;;
52708;SDS011;38606;52.986;6.980;2024-02-16T03:36:53;6.38;;;3.13;;
52708;SDS011;38606;52.986;6.980;2024-02-16T03:39:19;13.80;;;5.13;;
52708;SDS011;38606;52.986;6.980;2024-02-16T03:41:45;9.63;;;3.60;;
52708;SDS011;38606;52.986;6.980;2024-02-16T03:44:14;8.57;;;3.38;;
52708;SDS011;38606;52.986;6.980;2024-02-16T03:46:41;8.38;;;3.47;;
52708;SDS011;38606;52.986;6.980;2024-02-16T03:49:08;7.95;;;3.78;;
52708;SDS011;38606;52.986;6.980;2024-02-16T03:51:35;6.82;;;3.85;;
52708;SDS011;38606;52.986;6.980;2024-02-16T03:54:01;9.65;;;3.72;;
52708;SDS011;38606;52.986;6.980;2024-02-16T03:56:29;9.23;;;4.05;;
52708;SDS011;38606;52.986;6.980;2024-02-16T03:58:55;8.35;;;3.50;;
52708;SDS011;38606;52.986;6.980;2024-02-16T04:01:21;9.65;;;3.70;;
52708;SDS011;38606;52.986;6.980;2024-02-16T04:03:47;7.82;;;3.92;;
52708;SDS011;38606;52.986;6.980;2024-02-16T04:06:12;7.82;;;3.55;;
52708;SDS011;38606;52.986;6.980;2024-02-16T04:08:38;6.15;;;3.47;;
52708;SDS011;38606;52.986;6.980;2024-02-16T04:11:04;9.40;;;3.75;;
52708;SDS011;38606;52.986;6.980;2024-02-16T04:13:31;11.65;;;5.28;;
52708;SDS011;38606;52.986;6.980;2024-02-16T04:15:57;7.13;;;3.65;;
52708;SDS011;38606;52.986;6.980;2024-02-16T04:18:23;5.70;;;3.45;;
52708;SDS011;38606;52.986;6.980;2024-02-16T04:20:49;5.78;;;3.10;;
52708;SDS011;38606;52.986;6.980;2024-02-16T04:23:15;6.78;;;3.65;;
52708;SDS011;38606;52.986;6.980;2024-02-16T04:25:40;9.90;;;3.72;;
52708;SDS011;38606;52.986;6.980;2024-02-16T04:28:06;5.53;;;3.33;;
52708;SDS011;38606;52.986;6.980;2024-02-16T04:30:32;8.35;;;4.65;;
52708;SDS011;38606;52.986;6.980;2024-02-16T04:32:57;5.55;;;3.22;;
52708;SDS011;38606;52.986;6.980;2024-02-16T04:35:23;6.80;;;3.97;;
52708;SDS011;38606;52.986;6.980;2024-02-16T04:37:49;8.32;;;3.33;;
52708;SDS011;38606;52.986;6.980;2024-02-16T04:40:14;6.60;;;3.55;;
52708;SDS011;38606;52.986;6.980;2024-02-16T04:42:40;6.65;;;3.63;;
52708;SDS011;38606;52.986;6.980;2024-02-16T04:45:06;7.85;;;3.90;;
52708;SDS011;38606;52.986;6.980;2024-02-16T04:47:33;5.78;;;3.38;;
52708;SDS011;38606;52.986;6.980;2024-02-16T04:49:58;9.05;;;3.95;;
52708;SDS011;38606;52.986;6.980;2024-02-16T04:52:24;9.10;;;3.67;;
52708;SDS011;38606;52.986;6.980;2024-02-16T04:54:50;6.00;;;3.65;;
52708;SDS011;38606;52.986;6.980;2024-02-16T04:57:15;6.93;;;3.22;;
52708;SDS011;38606;52.986;6.980;2024-02-16T04:59:41;5.78;;;3.17;;
52708;SDS011;38606;52.986;6.980;2024-02-16T05:02:07;9.68;;;3.75;;
52708;SDS011;38606;52.986;6.980;2024-02-16T05:04:32;6.35;;;3.25;;
52708;SDS011;38606;52.986;6.980;2024-02-16T05:06:59;7.32;;;3.97;;
52708;SDS011;38606;52.986;6.980;2024-02-16T05:09:25;7.93;;;3.90;;
52708;SDS011;38606;52.986;6.980;2024-02-16T05:11:51;6.25;;;3.65;;
52708;SDS011;38606;52.986;6.980;2024-02-16T05:14:17;9.50;;;4.10;;
52708;SDS011;38606;52.986;6.980;2024-02-16T05:16:46;6.32;;;3.88;;
52708;SDS011;38606;52.986;6.980;2024-02-16T05:19:12;7.60;;;3.65;;
52708;SDS011;38606;52.986;6.980;2024-02-16T05:21:38;7.25;;;3.80;;
52708;SDS011;38606;52.986;6.980;2024-02-16T05:24:04;7.05;;;4.10;;
52708;SDS011;38606;52.986;6.980;2024-02-16T05:26:30;7.57;;;3.70;;
52708;SDS011;38606;52.986;6.980;2024-02-16T05:28:55;6.57;;;3.50;;
52708;SDS011;38606;52.986;6.980;2024-02-16T05:31:21;6.93;;;3.72;;
52708;SDS011;38606;52.986;6.980;2024-02-16T05:33:47;6.82;;;3.75;;
52708;SDS011;38606;52.986;6.980;2024-02-16T05:38:45;7.10;;;4.10;;
52708;SDS011;38606;52.986;6.980;2024-02-16T05:41:15;5.90;;;3.95;;
52708;SDS011;38606;52.986;6.980;2024-02-16T05:43:43;5.03;;;3.50;;
52708;SDS011;38606;52.986;6.980;2024-02-16T05:46:16;8.85;;;3.95;;
52708;SDS011;38606;52.986;6.980;2024-02-16T05:48:42;9.40;;;3.70;;
52708;SDS011;38606;52.986;6.980;2024-02-16T05:51:09;9.63;;;3.42;;
52708;SDS011;38606;52.986;6.980;2024-02-16T05:53:37;7.68;;;3.50;;
52708;SDS011;38606;52.986;6.980;2024-02-16T05:56:04;7.32;;;3.80;;
52708;SDS011;38606;52.986;6.980;2024-02-16T05:58:30;6.82;;;3.80;;
52708;SDS011;38606;52.986;6.980;2024-02-16T06:00:56;9.65;;;4.10;;
52708;SDS011;38606;52.986;6.980;2024-02-16T06:03:22;8.70;;;3.35;;
52708;SDS011;38606;52.986;6.980;2024-02-16T06:05:48;5.70;;;3.70;;
52708;SDS011;38606;52.986;6.980;2024-02-16T06:08:14;6.80;;;3.92;;
52708;SDS011;38606;52.986;6.980;2024-02-16T06:10:44;8.15;;;3.70;;
52708;SDS011;38606;52.986;6.980;2024-02-16T06:13:16;8.50;;;3.92;;
52708;SDS011;38606;52.986;6.980;2024-02-16T06:15:46;5.10;;;3.72;;
52708;SDS011;38606;52.986;6.980;2024-02-16T06:18:12;8.57;;;3.97;;
52708;SDS011;38606;52.986;6.980;2024-02-16T06:20:38;8.48;;;3.88;;
52708;SDS011;38606;52.986;6.980;2024-02-16T06:23:03;11.02;;;4.03;;
52708;SDS011;38606;52.986;6.980;2024-02-16T06:25:29;8.65;;;3.67;;
52708;SDS011;38606;52.986;6.980;2024-02-16T06:27:55;8.95;;;3.90;;
52708;SDS011;38606;52.986;6.980;2024-02-16T06:30:20;10.70;;;3.78;;
52708;SDS011;38606;52.986;6.980;2024-02-16T06:32:46;5.80;;;3.53;;
52708;SDS011;38606;52.986;6.980;2024-02-16T06:35:12;7.97;;;3.60;;
52708;SDS011;38606;52.986;6.980;2024-02-16T06:37:38;8.43;;;4.05;;
52708;SDS011;38606;52.986;6.980;2024-02-16T06:40:04;9.80;;;4.38;;
52708;SDS011;38606;52.986;6.980;2024-02-16T06:42:31;7.55;;;3.72;;
52708;SDS011;38606;52.986;6.980;2024-02-16T06:44:59;7.72;;;3.83;;
52708;SDS011;38606;52.986;6.980;2024-02-16T06:47:24;6.90;;;3.85;;
52708;SDS011;38606;52.986;6.980;2024-02-16T06:49:51;7.03;;;3.75;;
52708;SDS011;38606;52.986;6.980;2024-02-16T06:52:16;6.13;;;3.50;;
52708;SDS011;38606;52.986;6.980;2024-02-16T06:54:42;8.27;;;4.00;;
52708;SDS011;38606;52.986;6.980;2024-02-16T06:57:08;9.00;;;4.20;;
52708;SDS011;38606;52.986;6.980;2024-02-16T06:59:33;5.47;;;3.58;;
52708;SDS011;38606;52.986;6.980;2024-02-16T07:01:59;8.75;;;3.90;;
52708;SDS011;38606;52.986;6.980;2024-02-16T07:04:25;7.95;;;4.45;;
52708;SDS011;38606;52.986;6.980;2024-02-16T07:06:50;8.18;;;3.78;;
52708;SDS011;38606;52.986;6.980;2024-02-16T07:09:16;7.78;;;3.92;;
52708;SDS011;38606;52.986;6.980;2024-02-16T07:11:42;6.82;;;4.10;;
52708;SDS011;38606;52.986;6.980;2024-02-16T07:14:08;10.73;;;3.65;;
52708;SDS011;38606;52.986;6.980;2024-02-16T07:16:34;7.07;;;3.80;;
52708;SDS011;38606;52.986;6.980;2024-02-16T07:19:00;7.90;;;3.72;;
52708;SDS011;38606;52.986;6.980;2024-02-16T07:21:25;9.65;;;3.85;;
52708;SDS011;38606;52.986;6.980;2024-02-16T07:23:52;8.55;;;4.05;;
52708;SDS011;38606;52.986;6.980;2024-02-16T07:26:18;9.68;;;3.85;;
52708;SDS011;38606;52.986;6.980;2024-02-16T07:28:44;9.15;;;3.65;;
52708;SDS011;38606;52.986;6.980;2024-02-16T07:31:10;6.78;;;3.50;;
52708;SDS011;38606;52.986;6.980;2024-02-16T07:33:36;5.82;;;3.15;;
52708;SDS011;38606;52.986;6.980;2024-02-16T07:36:02;7.82;;;3.50;;
52708;SDS011;38606;52.986;6.980;2024-02-16T07:38:28;8.50;;;4.10;;
52708;SDS011;38606;52.986;6.980;2024-02-16T07:40:54;8.07;;;3.60;;
52708;SDS011;38606;52.986;6.980;2024-02-16T07:43:20;6.38;;;3.95;;
52708;SDS011;38606;52.986;6.980;2024-02-16T07:45:47;7.82;;;4.05;;
52708;SDS011;38606;52.986;6.980;2024-02-16T07:48:13;8.60;;;3.47;;
52708;SDS011;38606;52.986;6.980;2024-02-16T07:50:39;5.00;;;3.65;;
52708;SDS011;38606;52.986;6.980;2024-02-16T07:53:04;7.57;;;3.67;;
52708;SDS011;38606;52.986;6.980;2024-02-16T07:55:30;12.73;;;3.70;;
52708;SDS011;38606;52.986;6.980;2024-02-16T07:57:56;9.27;;;3.83;;
52708;SDS011;38606;52.986;6.980;2024-02-16T08:00:22;5.15;;;3.35;;
52708;SDS011;38606;52.986;6.980;2024-02-16T08:02:48;6.10;;;3.40;;
52708;SDS011;38606;52.986;6.980;2024-02-16T08:05:14;6.43;;;3.60;;
52708;SDS011;38606;52.986;6.980;2024-02-16T08:07:40;7.85;;;3.97;;
52708;SDS011;38606;52.986;6.980;2024-02-16T08:10:07;8.10;;;3.92;;
52708;SDS011;38606;52.986;6.980;2024-02-16T08:12:34;9.38;;;3.50;;
52708;SDS011;38606;52.986;6.980;2024-02-16T08:15:01;6.63;;;3.58;;
52708;SDS011;38606;52.986;6.980;2024-02-16T08:17:29;6.50;;;3.60;;
52708;SDS011;38606;52.986;6.980;2024-02-16T08:19:56;5.63;;;3.40;;
52708;SDS011;38606;52.986;6.980;2024-02-16T08:22:21;7.22;;;3.55;;
52708;SDS011;38606;52.986;6.980;2024-02-16T08:24:47;8.35;;;3.45;;
52708;SDS011;38606;52.986;6.980;2024-02-16T08:27:15;7.90;;;3.38;;
52708;SDS011;38606;52.986;6.980;2024-02-16T08:29:41;6.03;;;3.30;;
52708;SDS011;38606;52.986;6.980;2024-02-16T08:32:07;5.95;;;3.30;;
52708;SDS011;38606;52.986;6.980;2024-02-16T08:34:34;7.38;;;3.65;;
52708;SDS011;38606;52.986;6.980;2024-02-16T08:37:02;4.80;;;3.10;;
52708;SDS011;38606;52.986;6.980;2024-02-16T08:39:29;7.75;;;3.53;;
52708;SDS011;38606;52.986;6.980;2024-02-16T08:41:55;8.85;;;3.35;;
52708;SDS011;38606;52.986;6.980;2024-02-16T08:44:21;5.03;;;3.28;;
52708;SDS011;38606;52.986;6.980;2024-02-16T08:46:47;6.85;;;3.30;;
52708;SDS011;38606;52.986;6.980;2024-02-16T08:49:14;8.32;;;3.20;;
52708;SDS011;38606;52.986;6.980;2024-02-16T08:51:41;5.07;;;3.38;;
52708;SDS011;38606;52.986;6.980;2024-02-16T08:54:07;8.55;;;3.35;;
52708;SDS011;38606;52.986;6.980;2024-02-16T08:56:33;5.55;;;3.40;;
52708;SDS011;38606;52.986;6.980;2024-02-16T08:59:01;7.13;;;3.33;;
52708;SDS011;38606;52.986;6.980;2024-02-16T09:01:37;5.97;;;3.15;;
52708;SDS011;38606;52.986;6.980;2024-02-16T09:04:04;8.00;;;3.28;;
52708;SDS011;38606;52.986;6.980;2024-02-16T09:06:30;6.82;;;3.85;;
52708;SDS011;38606;52.986;6.980;2024-02-16T09:08:56;7.45;;;3.30;;
52708;SDS011;38606;52.986;6.980;2024-02-16T09:11:23;9.25;;;3.70;;
52708;SDS011;38606;52.986;6.980;2024-02-16T09:13:49;4.85;;;3.33;;
52708;SDS011;38606;52.986;6.980;2024-02-16T09:16:15;7.18;;;3.55;;
52708;SDS011;38606;52.986;6.980;2024-02-16T09:18:40;5.40;;;3.50;;
52708;SDS011;38606;52.986;6.980;2024-02-16T09:21:07;8.85;;;4.25;;
52708;SDS011;38606;52.986;6.980;2024-02-16T09:23:33;5.68;;;3.92;;
52708;SDS011;38606;52.986;6.980;2024-02-16T09:26:00;4.38;;;3.22;;
52708;SDS011;38606;52.986;6.980;2024-02-16T09:28:27;6.80;;;3.63;;
52708;SDS011;38606;52.986;6.980;2024-02-16T09:30:56;6.40;;;3.67;;
52708;SDS011;38606;52.986;6.980;2024-02-16T09:33:22;7.43;;;3.90;;
52708;SDS011;38606;52.986;6.980;2024-02-16T09:35:49;5.97;;;3.40;;
52708;SDS011;38606;52.986;6.980;2024-02-16T09:38:15;7.70;;;4.18;;
52708;SDS011;38606;52.986;6.980;2024-02-16T09:40:41;8.07;;;3.70;;
52708;SDS011;38606;52.986;6.980;2024-02-16T09:43:07;8.25;;;4.00;;
52708;SDS011;38606;52.986;6.980;2024-02-16T09:45:33;6.25;;;3.72;;
52708;SDS011;38606;52.986;6.980;2024-02-16T09:47:59;6.13;;;3.60;;
52708;SDS011;38606;52.986;6.980;2024-02-16T09:50:25;5.03;;;3.45;;
52708;SDS011;38606;52.986;6.980;2024-02-16T09:52:54;9.13;;;3.83;;
52708;SDS011;38606;52.986;6.980;2024-02-16T09:55:21;6.65;;;3.85;;
52708;SDS011;38606;52.986;6.980;2024-02-16T09:57:57;7.57;;;3.78;;
52708;SDS011;38606;52.986;6.980;2024-02-16T10:00:26;5.60;;;3.53;;
52708;SDS011;38606;52.986;6.980;2024-02-16T10:02:53;6.15;;;3.65;;
52708;SDS011;38606;52.986;6.980;2024-02-16T10:05:21;6.72;;;3.75;;
52708;SDS011;38606;52.986;6.980;2024-02-16T10:07:48;6.13;;;4.10;;
52708;SDS011;38606;52.986;6.980;2024-02-16T10:10:24;7.97;;;3.30;;
52708;SDS011;38606;52.986;6.980;2024-02-16T10:13:07;6.38;;;4.10;;
52708;SDS011;38606;52.986;6.980;2024-02-16T10:15:36;6.63;;;3.47;;
52708;SDS011;38606;52.986;6.980;2024-02-16T10:18:06;8.52;;;3.75;;
52708;SDS011;38606;52.986;6.980;2024-02-16T10:20:33;9.20;;;4.20;;
52708;SDS011;38606;52.986;6.980;2024-02-16T10:23:07;8.82;;;4.07;;
52708;SDS011;38606;52.986;6.980;2024-02-16T10:25:34;8.55;;;4.05;;
52708;SDS011;38606;52.986;6.980;2024-02-16T10:28:05;6.10;;;4.05;;
52708;SDS011;38606;52.986;6.980;2024-02-16T10:30:37;7.80;;;4.00;;
52708;SDS011;38606;52.986;6.980;2024-02-16T10:33:04;12.32;;;4.32;;
52708;SDS011;38606;52.986;6.980;2024-02-16T10:35:32;9.70;;;4.78;;
52708;SDS011;38606;52.986;6.980;2024-02-16T10:38:02;8.73;;;4.10;;
52708;SDS011;38606;52.986;6.980;2024-02-16T10:40:36;6.57;;;4.32;;
52708;SDS011;38606;52.986;6.980;2024-02-16T10:43:03;5.65;;;4.13;;
52708;SDS011;38606;52.986;6.980;2024-02-16T10:45:36;7.97;;;4.10;;
52708;SDS011;38606;52.986;6.980;2024-02-16T10:48:04;9.57;;;4.55;;
52708;SDS011;38606;52.986;6.980;2024-02-16T10:50:34;7.78;;;4.60;;
52708;SDS011;38606;52.986;6.980;2024-02-16T10:53:06;11.80;;;4.97;;
52708;SDS011;38606;52.986;6.980;2024-02-16T10:55:33;7.00;;;4.87;;
52708;SDS011;38606;52.986;6.980;2024-02-16T10:58:00;12.57;;;4.93;;
52708;SDS011;38606;52.986;6.980;2024-02-16T11:00:25;10.50;;;5.00;;
52708;SDS011;38606;52.986;6.980;2024-02-16T11:02:55;7.38;;;4.78;;
52708;SDS011;38606;52.986;6.980;2024-02-16T11:05:36;11.23;;;5.20;;
52708;SDS011;38606;52.986;6.980;2024-02-16T11:08:14;8.25;;;4.90;;
52708;SDS011;38606;52.986;6.980;2024-02-16T11:10:41;7.57;;;4.80;;
52708;SDS011;38606;52.986;6.980;2024-02-16T11:13:24;8.90;;;4.82;;
52708;SDS011;38606;52.986;6.980;2024-02-16T11:16:03;10.40;;;5.15;;
52708;SDS011;38606;52.986;6.980;2024-02-16T11:18:37;7.30;;;5.43;;
52708;SDS011;38606;52.986;6.980;2024-02-16T11:21:14;9.70;;;6.03;;
52708;SDS011;38606;52.986;6.980;2024-02-16T11:23:40;9.40;;;5.68;;
52708;SDS011;38606;52.986;6.980;2024-02-16T11:26:10;12.52;;;5.93;;
52708;SDS011;38606;52.986;6.980;2024-02-16T11:28:37;12.18;;;6.72;;
52708;SDS011;38606;52.986;6.980;2024-02-16T11:31:04;14.35;;;6.90;;
52708;SDS011;38606;52.986;6.980;2024-02-16T11:33:30;11.63;;;7.30;;
52708;SDS011;38606;52.986;6.980;2024-02-16T11:35:56;9.68;;;6.68;;
52708;SDS011;38606;52.986;6.980;2024-02-16T11:38:23;12.38;;;7.30;;
52708;SDS011;38606;52.986;6.980;2024-02-16T11:40:54;9.52;;;7.35;;
52708;SDS011;38606;52.986;6.980;2024-02-16T11:43:21;14.48;;;7.55;;
52708;SDS011;38606;52.986;6.980;2024-02-16T11:45:48;14.20;;;8.50;;
52708;SDS011;38606;52.986;6.980;2024-02-16T11:48:18;14.15;;;8.32;;
52708;SDS011;38606;52.986;6.980;2024-02-16T11:50:48;10.70;;;8.55;;
52708;SDS011;38606;52.986;6.980;2024-02-16T11:53:17;12.80;;;8.73;;
52708;SDS011;38606;52.986;6.980;2024-02-16T11:55:47;17.00;;;8.70;;
52708;SDS011;38606;52.986;6.980;2024-02-16T11:58:17;14.63;;;8.23;;
52708;SDS011;38606;52.986;6.980;2024-02-16T12:03:23;14.38;;;8.95;;
52708;SDS011;38606;52.986;6.980;2024-02-16T12:05:50;11.85;;;9.05;;
52708;SDS011;38606;52.986;6.980;2024-02-16T12:08:20;16.55;;;9.55;;
52708;SDS011;38606;52.986;6.980;2024-02-16T12:10:47;14.73;;;9.82;;
52708;SDS011;38606;52.986;6.980;2024-02-16T12:13:15;14.20;;;10.13;;
52708;SDS011;38606;52.986;6.980;2024-02-16T12:15:48;16.85;;;10.10;;
52708;SDS011;38606;52.986;6.980;2024-02-16T12:18:21;15.65;;;10.40;;
52708;SDS011;38606;52.986;6.980;2024-02-16T12:23:26;16.83;;;11.38;;
52708;SDS011;38606;52.986;6.980;2024-02-16T12:25:52;20.05;;;11.63;;
52708;SDS011;38606;52.986;6.980;2024-02-16T12:28:18;17.45;;;11.15;;
52708;SDS011;38606;52.986;6.980;2024-02-16T12:30:48;18.50;;;11.10;;
52708;SDS011;38606;52.986;6.980;2024-02-16T12:33:14;14.55;;;9.75;;
52708;SDS011;38606;52.986;6.980;2024-02-16T12:35:41;14.38;;;10.20;;
52708;SDS011;38606;52.986;6.980;2024-02-16T12:38:07;13.43;;;9.15;;
52708;SDS011;38606;52.986;6.980;2024-02-16T12:40:33;13.80;;;8.27;;
52708;SDS011;38606;52.986;6.980;2024-02-16T12:42:58;10.43;;;8.60;;
52708;SDS011;38606;52.986;6.980;2024-02-16T12:45:24;12.88;;;8.38;;
52708;SDS011;38606;52.986;6.980;2024-02-16T12:47:50;11.93;;;7.75;;
52708;SDS011;38606;52.986;6.980;2024-02-16T12:50:17;10.95;;;7.70;;
52708;SDS011;38606;52.986;6.980;2024-02-16T12:52:43;12.77;;;7.78;;
52708;SDS011;38606;52.986;6.980;2024-02-16T12:55:09;11.02;;;7.38;;
52708;SDS011;38606;52.986;6.980;2024-02-16T12:57:38;12.88;;;8.23;;
52708;SDS011;38606;52.986;6.980;2024-02-16T13:00:04;11.48;;;8.25;;
52708;SDS011;38606;52.986;6.980;2024-02-16T13:02:30;14.77;;;8.50;;
52708;SDS011;38606;52.986;6.980;2024-02-16T13:04:56;9.55;;;7.55;;
52708;SDS011;38606;52.986;6.980;2024-02-16T13:07:23;11.60;;;7.78;;
52708;SDS011;38606;52.986;6.980;2024-02-16T13:09:49;10.63;;;7.75;;
52708;SDS011;38606;52.986;6.980;2024-02-16T13:12:18;11.30;;;7.68;;
52708;SDS011;38606;52.986;6.980;2024-02-16T13:14:47;11.18;;;7.05;;
52708;SDS011;38606;52.986;6.980;2024-02-16T13:17:13;11.95;;;7.35;;
52708;SDS011;38606;52.986;6.980;2024-02-16T13:19:39;10.52;;;6.68;;
52708;SDS011;38606;52.986;6.980;2024-02-16T13:22:05;10.55;;;6.65;;
52708;SDS011;38606;52.986;6.980;2024-02-16T13:24:30;9.57;;;6.95;;
52708;SDS011;38606;52.986;6.980;2024-02-16T13:26:56;8.40;;;6.30;;
52708;SDS011;38606;52.986;6.980;2024-02-16T13:29:22;10.68;;;6.72;;
52708;SDS011;38606;52.986;6.980;2024-02-16T13:31:48;9.98;;;5.38;;
52708;SDS011;38606;52.986;6.980;2024-02-16T13:34:14;7.55;;;5.00;;
52708;SDS011;38606;52.986;6.980;2024-02-16T13:36:42;7.88;;;4.40;;
52708;SDS011;38606;52.986;6.980;2024-02-16T13:39:08;8.02;;;5.03;;
52708;SDS011;38606;52.986;6.980;2024-02-16T13:41:34;8.70;;;4.70;;
52708;SDS011;38606;52.986;6.980;2024-02-16T13:44:00;7.53;;;4.93;;
52708;SDS011;38606;52.986;6.980;2024-02-16T13:46:26;6.47;;;4.70;;
52708;SDS011;38606;52.986;6.980;2024-02-16T13:48:52;7.53;;;4.90;;
52708;SDS011;38606;52.986;6.980;2024-02-16T13:51:18;6.82;;;4.68;;
52708;SDS011;38606;52.986;6.980;2024-02-16T13:53:44;8.00;;;4.90;;
52708;SDS011;38606;52.986;6.980;2024-02-16T13:56:10;7.20;;;4.53;;
52708;SDS011;38606;52.986;6.980;2024-02-16T13:58:35;6.65;;;4.03;;
52708;SDS011;38606;52.986;6.980;2024-02-16T14:01:02;6.80;;;4.00;;
52708;SDS011;38606;52.986;6.980;2024-02-16T14:03:28;5.22;;;3.80;;
52708;SDS011;38606;52.986;6.980;2024-02-16T14:05:55;6.03;;;3.88;;
52708;SDS011;38606;52.986;6.980;2024-02-16T14:08:21;4.75;;;4.03;;
52708;SDS011;38606;52.986;6.980;2024-02-16T14:10:47;6.07;;;3.92;;
52708;SDS011;38606;52.986;6.980;2024-02-16T14:13:13;6.25;;;3.88;;
52708;SDS011;38606;52.986;6.980;2024-02-16T14:15:41;4.50;;;3.35;;
52708;SDS011;38606;52.986;6.980;2024-02-16T14:18:07;5.93;;;3.65;;
52708;SDS011;38606;52.986;6.980;2024-02-16T14:20:34;4.30;;;3.00;;
52708;SDS011;38606;52.986;6.980;2024-02-16T14:23:00;3.92;;;3.15;;
52708;SDS011;38606;52.986;6.980;2024-02-16T14:25:28;5.15;;;3.50;;
52708;SDS011;38606;52.986;6.980;2024-02-16T14:27:53;3.90;;;3.03;;
52708;SDS011;38606;52.986;6.980;2024-02-16T14:30:20;6.72;;;3.58;;
52708;SDS011;38606;52.986;6.980;2024-02-16T14:32:46;4.53;;;2.97;;
52708;SDS011;38606;52.986;6.980;2024-02-16T14:35:12;3.95;;;3.08;;
52708;SDS011;38606;52.986;6.980;2024-02-16T14:37:37;2.88;;;2.58;;
52708;SDS011;38606;52.986;6.980;2024-02-16T14:40:04;3.50;;;2.70;;
52708;SDS011;38606;52.986;6.980;2024-02-16T14:42:35;4.07;;;2.63;;
52708;SDS011;38606;52.986;6.980;2024-02-16T14:45:01;3.55;;;2.38;;
52708;SDS011;38606;52.986;6.980;2024-02-16T14:47:28;3.55;;;2.47;;
52708;SDS011;38606;52.986;6.980;2024-02-16T14:49:53;2.92;;;2.20;;